Time;durP1;ratioP1;P1;durP2;ratioP2;P2;SDS_P1;SDS_P2;PMS_P1;PMS_P2;Temp;Humidity;BMP_temperature;BMP_pressure;BME280_temperature;BME280_humidity;BME280_pressure;Samples;Min_cycle;Max_cycle;Signal;HPM_P1;HPM_P2
2022/08/22 00:00:15;;;;;;;2.67;2.00;;;20.70;99.90;;;;;;5055688;28;20179;-85
2022/08/22 00:02:41;;;;;;;3.03;2.00;;;;;;;;;;5073877;28;20168;-85
2022/08/22 00:05:24;;;;;;;2.58;1.90;;;20.80;99.90;;;;;;5075025;28;20179;-84
2022/08/22 00:08:11;;;;;;;2.47;2.10;;;20.50;99.90;;;;;;5041500;28;20183;-84
2022/08/22 00:11:09;;;;;;;4.63;2.67;;;19.90;99.90;;;;;;5076737;28;20183;-84
2022/08/22 00:14:17;;;;;;;4.50;2.22;;;20.50;99.90;;;;;;5064769;28;20192;-85
2022/08/22 00:16:51;;;;;;;3.28;2.60;;;20.40;99.90;;;;;;5080444;28;20205;-86
2022/08/22 00:19:25;;;;;;;5.00;2.88;;;20.40;99.90;;;;;;5078996;28;20179;-85
2022/08/22 00:22:00;;;;;;;4.82;2.83;;;20.40;99.90;;;;;;5059008;28;20519;-85
2022/08/22 00:24:46;;;;;;;2.72;2.03;;;20.40;99.90;;;;;;5078152;28;20620;-85
2022/08/22 00:27:18;;;;;;;4.13;3.15;;;20.40;99.90;;;;;;5076660;28;20171;-85
2022/08/22 00:29:53;;;;;;;2.47;1.80;;;20.40;99.90;;;;;;5076184;28;20229;-85
2022/08/22 00:32:23;;;;;;;2.97;2.20;;;20.40;99.90;;;;;;5075809;28;20643;-85
2022/08/22 00:35:11;;;;;;;3.55;2.45;;;20.00;99.90;;;;;;5057406;28;20185;-85
2022/08/22 00:37:46;;;;;;;2.50;2.10;;;20.30;99.90;;;;;;5065133;28;20168;-85
2022/08/22 00:40:40;;;;;;;3.00;2.38;;;20.40;99.90;;;;;;5075636;28;20171;-85
2022/08/22 00:43:48;;;;;;;2.72;1.88;;;19.90;99.90;;;;;;5075011;28;20222;-85
2022/08/22 00:46:38;;;;;;;2.90;1.95;;;20.60;99.90;;;;;;5042596;28;20187;-85
2022/08/22 00:49:31;;;;;;;2.97;1.90;;;19.90;99.90;;;;;;5074953;28;20203;-86
2022/08/22 00:52:17;;;;;;;2.83;1.95;;;20.40;99.90;;;;;;5075463;28;20253;-85
2022/08/22 00:54:57;;;;;;;3.22;2.05;;;20.00;99.90;;;;;;5076202;28;20227;-85
2022/08/22 00:57:47;;;;;;;2.63;2.17;;;20.10;99.90;;;;;;5076871;28;20178;-85
2022/08/22 01:00:17;;;;;;;3.63;2.75;;;20.50;99.90;;;;;;5076759;28;20159;-83
2022/08/22 01:03:11;;;;;;;7.35;2.35;;;19.90;99.90;;;;;;5074888;28;20183;-85
2022/08/22 01:06:10;;;;;;;5.68;2.38;;;20.60;99.90;;;;;;5057385;28;20262;-84
2022/08/22 01:08:51;;;;;;;2.97;2.05;;;20.10;99.90;;;;;;5085407;28;20217;-84
2022/08/22 01:11:44;;;;;;;2.90;2.13;;;19.70;99.90;;;;;;5095876;28;20274;-82
2022/08/22 01:14:25;;;;;;;2.88;2.15;;;;;;;;;;5097445;28;20168;-82
2022/08/22 01:16:53;;;;;;;2.80;1.67;;;;;;;;;;5096631;28;20206;-85
2022/08/22 01:19:56;;;;;;;4.78;2.00;;;20.20;99.90;;;;;;5096312;28;20209;-82
2022/08/22 01:22:55;;;;;;;2.88;2.20;;;19.70;99.90;;;;;;5075774;28;20240;-84
2022/08/22 01:25:39;;;;;;;4.07;2.70;;;20.60;99.90;;;;;;5075682;28;20187;-85
2022/08/22 01:28:23;;;;;;;2.55;2.10;;;20.20;99.90;;;;;;5056167;28;20183;-85
2022/08/22 01:31:33;;;;;;;2.80;1.63;;;20.20;99.90;;;;;;5075155;28;20171;-85
2022/08/22 01:34:11;;;;;;;3.30;2.08;;;19.90;99.90;;;;;;5031259;28;20202;-84
2022/08/22 01:37:13;;;;;;;2.85;2.13;;;20.20;99.90;;;;;;5062949;28;20198;-86
2022/08/22 01:39:39;;;;;;;3.72;2.25;;;;;;;;;;5075656;28;20182;-85
2022/08/22 01:42:42;;;;;;;3.95;2.47;;;19.80;99.90;;;;;;5056765;28;20543;-85
2022/08/22 01:45:32;;;;;;;3.13;1.77;;;20.10;99.90;;;;;;5075202;28;20206;-84
2022/08/22 01:48:21;;;;;;;2.47;2.20;;;20.00;99.90;;;;;;5073786;28;20218;-84
2022/08/22 01:51:08;;;;;;;2.28;1.85;;;20.50;99.90;;;;;;5074239;28;20179;-84
2022/08/22 01:53:47;;;;;;;3.40;2.22;;;20.70;99.90;;;;;;5074594;28;20252;-84
2022/08/22 01:56:16;;;;;;;3.70;2.20;;;20.00;99.90;;;;;;5074869;28;20175;-84
2022/08/22 01:59:12;;;;;;;2.58;2.00;;;19.80;99.90;;;;;;5073756;28;20265;-85
2022/08/22 02:01:44;;;;;;;1.80;1.60;;;20.00;99.90;;;;;;5074889;28;20172;-84
2022/08/22 02:04:13;;;;;;;4.47;2.72;;;19.60;99.90;;;;;;5074386;28;20624;-84
2022/08/22 02:06:59;;;;;;;3.45;2.38;;;20.00;99.90;;;;;;5074803;28;20167;-84
2022/08/22 02:09:43;;;;;;;2.40;2.10;;;19.50;99.90;;;;;;5056344;28;20195;-84
2022/08/22 02:12:25;;;;;;;3.33;2.47;;;20.00;99.90;;;;;;5074682;28;20277;-85
2022/08/22 02:15:15;;;;;;;7.72;2.38;;;20.00;99.90;;;;;;5074646;28;20168;-84
2022/08/22 02:18:04;;;;;;;3.35;2.00;;;20.00;99.90;;;;;;5074570;28;20171;-85
2022/08/22 02:21:03;;;;;;;3.67;2.38;;;19.90;99.90;;;;;;5066060;28;20191;-85
2022/08/22 02:24:02;;;;;;;2.95;2.13;;;20.00;99.90;;;;;;5073966;28;20199;-85
2022/08/22 02:26:35;;;;;;;3.95;2.40;;;20.00;99.90;;;;;;5070776;28;20195;-85
2022/08/22 02:29:14;;;;;;;3.65;2.17;;;20.20;99.90;;;;;;5074014;28;20198;-85
2022/08/22 02:31:55;;;;;;;2.80;1.98;;;17.90;99.90;;;;;;5056595;28;20536;-86
2022/08/22 02:34:21;;;;;;;3.00;2.28;;;;;;;;;;5074314;28;20216;-85
2022/08/22 02:36:55;;;;;;;3.78;2.50;;;19.60;99.90;;;;;;5072418;28;20171;-85
2022/08/22 02:39:35;;;;;;;3.72;2.70;;;20.00;99.90;;;;;;5073723;28;20234;-85
2022/08/22 02:42:25;;;;;;;4.00;2.28;;;19.90;99.90;;;;;;5055293;28;20623;-85
2022/08/22 02:45:15;;;;;;;5.90;2.65;;;19.50;99.90;;;;;;5073199;28;20679;-86
2022/08/22 02:48:09;;;;;;;6.05;2.97;;;20.00;99.90;;;;;;5073801;28;20220;-85
2022/08/22 02:50:36;;;;;;;3.65;2.05;;;;;;;;;;5054057;28;20200;-85
2022/08/22 02:53:15;;;;;;;3.80;2.08;;;20.10;99.90;;;;;;5035004;28;20182;-84
2022/08/22 02:55:53;;;;;;;2.20;2.00;;;20.00;99.90;;;;;;5054583;28;20210;-85
2022/08/22 02:58:48;;;;;;;2.83;1.98;;;19.90;99.90;;;;;;5053870;28;20163;-85
2022/08/22 03:01:21;;;;;;;4.22;2.67;;;19.80;99.90;;;;;;5053249;28;20176;-85
2022/08/22 03:03:47;;;;;;;3.33;2.22;;;;;;;;;;5054494;28;20324;-84
2022/08/22 03:06:16;;;;;;;3.47;2.72;;;20.30;99.90;;;;;;5053639;28;20176;-85
2022/08/22 03:09:14;;;;;;;2.88;2.50;;;19.80;99.90;;;;;;5035773;28;20577;-86
2022/08/22 03:11:47;;;;;;;4.18;2.35;;;19.80;99.90;;;;;;5052322;28;20176;-85
2022/08/22 03:14:32;;;;;;;2.78;2.10;;;19.90;99.90;;;;;;5053159;28;20194;-85
2022/08/22 03:17:17;;;;;;;3.67;2.38;;;19.20;99.90;;;;;;5053195;28;20172;-85
2022/08/22 03:19:49;;;;;;;3.72;2.50;;;19.70;99.90;;;;;;5068581;28;20178;-85
2022/08/22 03:22:27;;;;;;;3.13;2.22;;;19.70;99.90;;;;;;5066033;28;20167;-85
2022/08/22 03:25:16;;;;;;;8.35;2.58;;;19.70;99.90;;;;;;5076929;28;20163;-86
2022/08/22 03:27:59;;;;;;;2.88;2.05;;;20.10;99.90;;;;;;5072415;28;20166;-85
2022/08/22 03:30:40;;;;;;;3.33;2.45;;;19.40;99.90;;;;;;5073666;28;20179;-86
2022/08/22 03:33:21;;;;;;;3.97;2.70;;;19.30;99.90;;;;;;5072845;28;20219;-86
2022/08/22 03:35:48;;;;;;;6.28;3.47;;;19.90;99.90;;;;;;5072810;28;20186;-85
2022/08/22 03:38:23;;;;;;;3.13;2.33;;;19.70;99.90;;;;;;5071482;28;20190;-85
2022/08/22 03:41:01;;;;;;;3.72;2.60;;;20.30;99.90;;;;;;5073230;28;20159;-85
2022/08/22 03:43:53;;;;;;;4.07;2.70;;;19.60;99.90;;;;;;5077008;28;20227;-85
2022/08/22 03:46:49;;;;;;;2.97;2.35;;;19.30;99.90;;;;;;5053146;28;20202;-86
2022/08/22 03:49:44;;;;;;;4.05;2.90;;;19.60;99.90;;;;;;5075961;28;20207;-85
2022/08/22 03:52:28;;;;;;;4.43;2.95;;;19.30;99.90;;;;;;5077052;28;20664;-85
2022/08/22 03:54:54;;;;;;;5.90;2.30;;;;;;;;;;5059424;28;20179;-85
2022/08/22 03:57:49;;;;;;;2.90;2.47;;;19.60;99.90;;;;;;5077147;28;20194;-85
2022/08/22 04:00:30;;;;;;;3.33;2.33;;;19.50;99.90;;;;;;5076486;28;20181;-86
2022/08/22 04:03:10;;;;;;;4.20;2.50;;;19.50;99.90;;;;;;5075896;28;20246;-86
2022/08/22 04:05:57;;;;;;;4.15;2.53;;;19.40;99.90;;;;;;5072529;28;20232;-85
2022/08/22 04:08:55;;;;;;;2.72;2.40;;;19.80;99.90;;;;;;5074877;28;20278;-85
2022/08/22 04:11:37;;;;;;;3.95;2.60;;;19.60;99.90;;;;;;5056000;28;20183;-85
2022/08/22 04:14:36;;;;;;;5.63;2.78;;;19.30;99.90;;;;;;5073667;28;20651;-85
2022/08/22 04:17:19;;;;;;;3.67;2.38;;;19.80;99.90;;;;;;5073679;28;20266;-85
2022/08/22 04:20:28;;;;;;;4.75;2.63;;;19.40;99.90;;;;;;5074658;28;20179;-85
2022/08/22 04:23:13;;;;;;;4.18;2.63;;;19.50;99.90;;;;;;5061057;28;20198;-85
2022/08/22 04:25:49;;;;;;;4.13;2.22;;;19.70;99.90;;;;;;5070398;28;20175;-86
2022/08/22 04:28:31;;;;;;;2.15;1.92;;;20.00;99.90;;;;;;5073531;28;20269;-86
2022/08/22 04:31:12;;;;;;;3.03;2.22;;;20.00;99.90;;;;;;5049104;28;20582;-87
2022/08/22 04:33:44;;;;;;;3.83;2.80;;;19.80;99.90;;;;;;5071123;28;20175;-87
2022/08/22 04:36:16;;;;;;;3.45;2.53;;;19.80;99.90;;;;;;5057875;28;20635;-87
2022/08/22 04:38:55;;;;;;;2.63;2.00;;;20.30;99.90;;;;;;5075500;28;20183;-88
2022/08/22 04:41:25;;;;;;;2.88;2.25;;;19.90;99.90;;;;;;5069300;28;20685;-87
2022/08/22 04:44:12;;;;;;;2.25;2.05;;;20.20;99.90;;;;;;5080104;28;20619;-87
2022/08/22 04:46:45;;;;;;;3.00;2.40;;;;;;;;;;5062052;28;20217;-87
2022/08/22 04:49:15;;;;;;;4.28;2.85;;;20.30;99.90;;;;;;5081998;28;20270;-87
2022/08/22 04:51:51;;;;;;;4.53;2.70;;;20.10;99.90;;;;;;5090677;28;20187;-87
2022/08/22 04:54:47;;;;;;;3.55;2.58;;;20.20;99.90;;;;;;5089011;28;20179;-85
2022/08/22 04:57:37;;;;;;;5.00;2.55;;;20.70;99.90;;;;;;5080489;28;20180;-85
2022/08/22 05:00:07;;;;;;;5.53;2.88;;;20.50;99.90;;;;;;5068922;28;20167;-86
2022/08/22 05:02:36;;;;;;;3.47;2.53;;;20.60;99.90;;;;;;5093318;28;20182;-86
2022/08/22 05:05:16;;;;;;;4.22;2.55;;;20.70;99.90;;;;;;5091224;28;20187;-85
2022/08/22 05:07:47;;;;;;;2.67;2.35;;;20.70;99.90;;;;;;5087565;28;20179;-84
2022/08/22 05:10:24;;;;;;;3.80;2.58;;;20.60;99.90;;;;;;5074198;28;20238;-87
2022/08/22 05:12:59;;;;;;;2.08;1.88;;;20.20;99.90;;;;;;5059804;28;20206;-87
2022/08/22 05:15:37;;;;;;;3.25;2.25;;;20.80;99.90;;;;;;5066022;28;20166;-86
2022/08/22 05:18:27;;;;;;;8.10;3.45;;;20.50;99.90;;;;;;5071455;28;20565;-87
2022/08/22 05:20:54;;;;;;;4.47;3.00;;;20.60;99.90;;;;;;5062393;28;20187;-87
2022/08/22 05:23:29;;;;;;;5.50;2.78;;;19.90;99.90;;;;;;5076517;28;20175;-86
2022/08/22 05:25:59;;;;;;;3.65;2.75;;;20.40;99.90;;;;;;5078773;28;20197;-87
2022/08/22 05:28:48;;;;;;;4.30;2.65;;;20.30;99.90;;;;;;5070944;28;20199;-88
2022/08/22 05:31:24;;;;;;;3.70;2.13;;;20.30;99.90;;;;;;5074867;28;20180;-87
2022/08/22 05:33:55;;;;;;;3.30;2.92;;;20.30;99.90;;;;;;5068549;28;20501;-86
2022/08/22 05:36:25;;;;;;;4.55;2.50;;;20.40;99.90;;;;;;5054616;28;20199;-86
2022/08/22 05:39:01;;;;;;;4.03;2.30;;;20.30;99.90;;;;;;5072790;28;20175;-87
2022/08/22 05:41:31;;;;;;;6.05;2.20;;;20.40;99.90;;;;;;5072641;28;20655;-87
2022/08/22 05:43:57;;;;;;;3.25;2.95;;;;;;;;;;5054397;28;20215;-88
2022/08/22 05:46:49;;;;;;;2.83;2.25;;;20.50;99.90;;;;;;5052210;28;20179;-87
2022/08/22 05:49:15;;;;;;;3.35;2.25;;;;;;;;;;5070738;28;20337;-87
2022/08/22 05:51:47;;;;;;;2.50;2.25;;;;;;;;;;5074273;28;20262;-86
2022/08/22 05:54:18;;;;;;;4.25;3.03;;;;;;;;;;5073451;28;20228;-85
2022/08/22 05:56:46;;;;;;;4.25;2.78;;;;;;;;;;5054426;28;20183;-86
2022/08/22 05:59:13;;;;;;;8.65;3.47;;;;;;;;;;5073123;28;20317;-86
2022/08/22 06:01:51;;;;;;;3.95;2.63;;;;;;;;;;5055719;28;20753;-85
2022/08/22 06:04:34;;;;;;;4.93;3.17;;;20.40;99.90;;;;;;5072873;28;20516;-86
2022/08/22 06:07:24;;;;;;;8.20;3.65;;;20.40;99.90;;;;;;5052426;28;20247;-87
2022/08/22 06:10:22;;;;;;;4.68;3.30;;;20.50;99.90;;;;;;5074175;28;20194;-87
2022/08/22 06:13:10;;;;;;;6.63;2.58;;;20.70;99.90;;;;;;5091156;28;20183;-87
2022/08/22 06:15:45;;;;;;;4.53;3.00;;;20.40;99.90;;;;;;5086558;28;20748;-86
2022/08/22 06:18:15;;;;;;;3.83;2.63;;;20.70;99.90;;;;;;5055366;28;20684;-87
2022/08/22 06:20:53;;;;;;;4.95;3.05;;;20.20;99.90;;;;;;5071785;28;20160;-86
2022/08/22 06:23:43;;;;;;;4.75;3.00;;;20.40;99.90;;;;;;5058699;28;20175;-86
2022/08/22 06:26:13;;;;;;;4.18;3.13;;;;;;;;;;5069907;28;20186;-86
2022/08/22 06:28:41;;;;;;;5.50;3.38;;;20.90;99.90;;;;;;5070072;28;20206;-86
2022/08/22 06:31:20;;;;;;;4.30;3.00;;;20.90;99.90;;;;;;5073505;28;20379;-90
2022/08/22 06:33:56;;;;;;;5.00;3.20;;;21.00;99.90;;;;;;5056569;28;20223;-85
2022/08/22 06:36:32;;;;;;;4.68;3.55;;;;;;;;;;5072375;28;20288;-86
2022/08/22 06:39:19;;;;;;;4.85;3.10;;;21.10;99.90;;;;;;5072040;28;20220;-85
2022/08/22 06:41:45;;;;;;;7.25;4.65;;;;;;;;;;5072437;28;20608;-86
2022/08/22 06:44:15;;;;;;;3.60;2.97;;;21.20;99.90;;;;;;5072920;28;20230;-85
2022/08/22 06:46:45;;;;;;;4.10;3.38;;;21.30;99.90;;;;;;5070888;28;20223;-85
2022/08/22 06:49:11;;;;;;;7.47;4.45;;;;;;;;;;5070570;28;20203;-85
2022/08/22 06:51:38;;;;;;;4.72;3.08;;;21.40;99.90;;;;;;5073994;28;20187;-86
2022/08/22 06:54:11;;;;;;;5.85;3.55;;;21.50;99.90;;;;;;5074556;28;20204;-85
2022/08/22 06:56:44;;;;;;;8.77;4.47;;;21.50;99.90;;;;;;5056549;28;20961;-86
2022/08/22 06:59:19;;;;;;;6.05;3.80;;;21.50;99.90;;;;;;5069940;28;20247;-88
2022/08/22 07:02:02;;;;;;;6.07;3.25;;;21.70;99.90;;;;;;5071551;28;20275;-87
2022/08/22 07:04:29;;;;;;;3.53;2.80;;;21.70;99.90;;;;;;5057064;28;20194;-85
2022/08/22 07:06:58;;;;;;;7.35;4.38;;;21.70;99.90;;;;;;5075622;28;20186;-86
2022/08/22 07:09:37;;;;;;;5.00;3.53;;;21.60;99.90;;;;;;5062901;28;20207;-86
2022/08/22 07:12:12;;;;;;;5.22;3.22;;;21.80;99.90;;;;;;5078834;28;20636;-86
2022/08/22 07:14:43;;;;;;;5.22;3.55;;;21.80;99.90;;;;;;5058673;28;20646;-86
2022/08/22 07:17:20;;;;;;;7.47;3.40;;;21.90;99.90;;;;;;5066317;28;20191;-87
2022/08/22 07:19:58;;;;;;;3.58;2.88;;;21.50;99.90;;;;;;5070077;28;20178;-87
2022/08/22 07:22:29;;;;;;;6.97;3.38;;;22.00;99.90;;;;;;5068945;28;20178;-86
2022/08/22 07:25:15;;;;;;;4.53;3.03;;;22.10;99.90;;;;;;5068717;28;20636;-87
2022/08/22 07:27:52;;;;;;;4.63;3.28;;;21.90;99.90;;;;;;5067302;28;20293;-86
2022/08/22 07:30:20;;;;;;;7.70;4.47;;;22.20;99.90;;;;;;5047546;28;20203;-88
2022/08/22 07:32:58;;;;;;;6.45;4.78;;;22.10;99.90;;;;;;5067900;28;20542;-87
2022/08/22 07:35:34;;;;;;;9.30;4.13;;;22.50;99.90;;;;;;5063476;28;20190;-87
2022/08/22 07:38:36;;;;;;;5.28;3.85;;;22.30;99.90;;;;;;5063741;28;20317;-88
2022/08/22 07:41:02;;;;;;;6.05;3.28;;;;;;;;;;5063542;28;20277;-86
2022/08/22 07:43:40;;;;;;;6.50;4.40;;;22.40;99.90;;;;;;5049863;28;20270;-88
2022/08/22 07:46:31;;;;;;;11.43;4.47;;;22.10;99.90;;;;;;5066793;28;20278;-88
2022/08/22 07:49:16;;;;;;;5.03;3.47;;;22.60;99.90;;;;;;5063449;28;20196;-89
2022/08/22 07:51:42;;;;;;;6.43;3.50;;;;;;;;;;5062639;28;20293;-87
2022/08/22 07:54:34;;;;;;;5.68;3.78;;;22.80;99.90;;;;;;5061367;28;20200;-89
2022/08/22 07:57:37;;;;;;;8.45;4.10;;;23.30;99.90;;;;;;5057454;28;20203;-88
2022/08/22 08:00:10;;;;;;;5.20;3.28;;;23.50;99.90;;;;;;4992941;28;20196;-89
2022/08/22 08:02:38;;;;;;;7.05;3.42;;;23.10;99.90;;;;;;5052706;28;20195;-87
2022/08/22 08:05:04;;;;;;;6.25;3.85;;;23.70;99.90;;;;;;5062846;28;20180;-88
2022/08/22 08:07:31;;;;;;;6.57;4.13;;;;;;;;;;5027843;28;20180;-88
2022/08/22 08:10:03;;;;;;;7.25;4.25;;;23.30;99.90;;;;;;5044104;28;20230;-87
2022/08/22 08:12:36;;;;;;;6.97;4.47;;;23.30;99.90;;;;;;5044831;28;20175;-86
2022/08/22 08:15:06;;;;;;;4.95;3.42;;;23.40;99.90;;;;;;5060989;28;20207;-87
2022/08/22 08:17:34;;;;;;;6.05;3.92;;;23.50;99.90;;;;;;5063308;28;20167;-86
2022/08/22 08:20:07;;;;;;;8.52;4.43;;;23.50;99.90;;;;;;5061761;28;20190;-85
2022/08/22 08:22:33;;;;;;;7.82;4.45;;;;;;;;;;5045340;28;20515;-87
2022/08/22 08:25:03;;;;;;;9.77;3.70;;;23.60;99.90;;;;;;5061362;28;20254;-87
2022/08/22 08:30:35;;;;;;;8.45;4.85;;;23.20;99.90;;;;;;5067463;28;20356;-87
2022/08/22 08:33:06;;;;;;;5.97;3.78;;;23.90;99.90;;;;;;5069825;28;20180;-88
2022/08/22 08:35:38;;;;;;;10.93;4.18;;;23.70;99.90;;;;;;5068046;28;20650;-88
2022/08/22 08:38:16;;;;;;;7.38;3.95;;;23.40;99.90;;;;;;5064394;28;20217;-88
2022/08/22 08:41:19;;;;;;;9.23;4.35;;;23.80;99.90;;;;;;5065632;28;20249;-87
2022/08/22 08:43:58;;;;;;;9.40;3.97;;;23.90;99.90;;;;;;5081576;28;20339;-88
2022/08/22 08:46:24;;;;;;;7.93;3.80;;;;;;;;;;5066861;28;20174;-89
2022/08/22 08:49:17;;;;;;;7.80;3.63;;;24.30;99.90;;;;;;5067587;28;20277;-89
2022/08/22 08:52:08;;;;;;;7.63;4.03;;;23.80;99.90;;;;;;5073469;28;20199;-86
2022/08/22 08:54:44;;;;;;;6.47;3.70;;;23.90;99.90;;;;;;5081522;28;20163;-87
2022/08/22 08:57:20;;;;;;;8.10;4.63;;;24.00;99.90;;;;;;5078443;28;20183;-87
2022/08/22 09:00:13;;;;;;;9.82;4.63;;;24.60;99.90;;;;;;5082889;28;20168;-87
2022/08/22 09:02:44;;;;;;;10.27;4.35;;;23.80;99.90;;;;;;5061749;28;20188;-86
2022/08/22 09:05:11;;;;;;;6.35;4.22;;;;;;;;;;5066270;28;20175;-87
2022/08/22 09:07:48;;;;;;;5.18;3.45;;;23.90;99.90;;;;;;5066068;28;20171;-87
2022/08/22 09:10:15;;;;;;;7.00;3.92;;;;;;;;;;5067965;28;20214;-86
2022/08/22 09:13:02;;;;;;;8.25;4.53;;;24.30;99.90;;;;;;5074638;28;20189;-86
2022/08/22 09:15:39;;;;;;;4.13;2.95;;;24.40;99.90;;;;;;5068020;28;20183;-87
2022/08/22 09:18:06;;;;;;;6.75;3.50;;;;;;;;;;5046612;28;20171;-87
2022/08/22 09:20:58;;;;;;;5.28;3.72;;;24.70;99.90;;;;;;5064399;28;20187;-88
2022/08/22 09:23:42;;;;;;;6.43;3.63;;;24.50;99.90;;;;;;5065855;28;20255;-87
2022/08/22 09:26:36;;;;;;;4.75;3.35;;;24.70;99.90;;;;;;5066778;28;20195;-87
2022/08/22 09:29:30;;;;;;;6.53;2.63;;;24.90;99.90;;;;;;5037252;28;20272;-87
2022/08/22 09:32:13;;;;;;;4.28;3.03;;;24.90;99.90;;;;;;5068557;28;20167;-88
2022/08/22 09:35:07;;;;;;;3.72;2.88;;;25.00;99.90;;;;;;5066642;28;20171;-87
2022/08/22 09:37:51;;;;;;;5.93;3.33;;;25.20;99.90;;;;;;5064362;28;20263;-87
2022/08/22 09:40:18;;;;;;;5.03;3.05;;;;;;;;;;5069235;28;20179;-87
2022/08/22 09:42:58;;;;;;;8.90;3.00;;;25.40;99.90;;;;;;5068013;28;20187;-87
2022/08/22 09:45:39;;;;;;;3.42;2.78;;;26.00;99.90;;;;;;5050284;28;20187;-88
2022/08/22 09:48:26;;;;;;;5.18;2.92;;;25.70;99.90;;;;;;5056218;28;20222;-88
2022/08/22 09:51:13;;;;;;;5.75;2.83;;;25.00;99.90;;;;;;5053772;28;20197;-89
2022/08/22 09:53:39;;;;;;;3.47;2.50;;;;;;;;;;5056229;28;20270;-88
2022/08/22 09:56:05;;;;;;;2.50;2.30;;;;;;;;;;5072326;28;20349;-88
2022/08/22 09:58:40;;;;;;;6.18;2.95;;;25.70;99.90;;;;;;5053646;28;20188;-88
2022/08/22 10:01:31;;;;;;;3.15;2.63;;;25.60;99.90;;;;;;5066023;28;20182;-87
2022/08/22 10:04:02;;;;;;;4.80;2.95;;;25.00;99.90;;;;;;5071193;28;20177;-87
2022/08/22 10:06:43;;;;;;;7.75;3.08;;;25.60;99.90;;;;;;5056619;28;20643;-86
2022/08/22 10:09:26;;;;;;;8.55;3.00;;;25.60;99.90;;;;;;5070810;28;20210;-87
2022/08/22 10:12:19;;;;;;;4.88;2.63;;;25.50;99.90;;;;;;5068368;28;20659;-87
2022/08/22 10:14:45;;;;;;;3.25;2.83;;;;;;;;;;5070966;28;20649;-87
2022/08/22 10:17:22;;;;;;;5.65;2.72;;;25.40;99.90;;;;;;5068998;28;20199;-88
2022/08/22 10:20:00;;;;;;;3.70;2.78;;;25.60;99.90;;;;;;5047793;28;20631;-87
2022/08/22 10:22:44;;;;;;;5.25;3.30;;;25.80;99.90;;;;;;5078480;28;20689;-87
2022/08/22 10:25:11;;;;;;;5.60;2.83;;;;;;;;;;5062950;28;20644;-86
2022/08/22 10:28:05;;;;;;;6.05;4.05;;;26.00;99.90;;;;;;5061169;28;20176;-85
2022/08/22 10:31:01;;;;;;;4.35;2.85;;;26.00;99.90;;;;;;5062229;28;20282;-88
2022/08/22 10:33:40;;;;;;;5.50;3.17;;;26.20;99.90;;;;;;5063069;28;20278;-88
2022/08/22 10:36:14;;;;;;;4.50;3.08;;;26.40;99.90;;;;;;5068075;28;20632;-87
2022/08/22 10:38:48;;;;;;;2.75;2.38;;;26.10;99.90;;;;;;5068368;28;20191;-88
2022/08/22 10:41:46;;;;;;;4.35;2.15;;;27.30;99.90;;;;;;5059615;28;20258;-86
2022/08/22 10:44:59;;;;;;;3.92;2.80;;;27.10;99.90;;;;;;5047483;28;20326;-88
2022/08/22 10:47:57;;;;;;;5.13;2.50;;;27.20;99.90;;;;;;5077714;28;20195;-86
2022/08/22 10:50:29;;;;;;;3.65;2.50;;;27.50;99.90;;;;;;5038316;28;20227;-86
2022/08/22 10:53:32;;;;;;;7.00;2.53;;;27.70;99.90;;;;;;5066703;28;20160;-86
2022/08/22 10:56:12;;;;;;;4.35;3.47;;;28.00;99.90;;;;;;5071043;28;20178;-85
2022/08/22 10:58:53;;;;;;;7.00;3.25;;;27.90;99.90;;;;;;5072101;28;20190;-89
2022/08/22 11:01:26;;;;;;;5.47;2.60;;;27.70;99.90;;;;;;5075035;28;20189;-89
2022/08/22 11:04:04;;;;;;;3.97;2.70;;;27.60;99.90;;;;;;5085042;28;20182;-89
2022/08/22 11:06:44;;;;;;;3.80;2.70;;;28.40;99.90;;;;;;5071741;28;20202;-85
2022/08/22 11:09:34;;;;;;;4.68;3.22;;;28.20;99.90;;;;;;5063052;28;20287;-86
2022/08/22 11:12:11;;;;;;;6.05;3.40;;;28.00;99.90;;;;;;5062163;28;20246;-85
2022/08/22 11:15:17;;;;;;;4.50;2.65;;;27.70;99.90;;;;;;5059110;28;20172;-87
2022/08/22 11:17:56;;;;;;;3.40;2.38;;;27.20;99.90;;;;;;5072337;28;20631;-85
2022/08/22 11:20:46;;;;;;;4.57;2.83;;;27.60;99.90;;;;;;5054673;28;20191;-84
2022/08/22 11:23:31;;;;;;;5.32;2.80;;;27.30;99.90;;;;;;5050900;28;20179;-85
2022/08/22 11:26:21;;;;;;;5.15;2.63;;;27.50;99.90;;;;;;5051698;28;20205;-86
2022/08/22 11:28:47;;;;;;;6.15;2.67;;;;;;;;;;5072568;28;20225;-84
2022/08/22 11:31:43;;;;;;;3.13;2.42;;;27.50;99.90;;;;;;5073429;28;20687;-84
2022/08/22 11:34:31;;;;;;;4.35;2.40;;;27.50;99.90;;;;;;5049095;28;20183;-84
2022/08/22 11:37:17;;;;;;;2.75;2.40;;;27.70;99.90;;;;;;5054524;28;20183;-86
2022/08/22 11:40:00;;;;;;;8.27;4.38;;;27.80;99.90;;;;;;5071006;28;20197;-86
2022/08/22 11:42:46;;;;;;;3.65;2.80;;;27.80;99.90;;;;;;5073107;28;20171;-86
2022/08/22 11:45:19;;;;;;;9.07;3.50;;;28.10;99.90;;;;;;5053041;28;20210;-84
2022/08/22 11:47:59;;;;;;;4.95;3.28;;;28.10;99.90;;;;;;5053105;28;20682;-85
2022/08/22 11:50:39;;;;;;;4.60;2.47;;;28.10;99.90;;;;;;5052900;28;20203;-86
2022/08/22 11:53:29;;;;;;;4.70;2.67;;;28.40;99.90;;;;;;5050485;28;20563;-85
2022/08/22 11:56:20;;;;;;;2.75;2.25;;;27.50;99.90;;;;;;5052846;28;20237;-85
2022/08/22 11:58:53;;;;;;;3.70;2.55;;;27.90;99.90;;;;;;5050983;28;20241;-85
2022/08/22 12:01:27;;;;;;;4.00;2.83;;;27.80;99.90;;;;;;5050808;28;20181;-85
2022/08/22 12:04:28;;;;;;;4.50;2.90;;;28.50;99.90;;;;;;5055599;28;20191;-84
2022/08/22 12:07:11;;;;;;;3.50;2.33;;;28.40;99.90;;;;;;5031149;28;20188;-84
2022/08/22 12:10:08;;;;;;;3.90;2.40;;;28.10;99.90;;;;;;5045169;28;20212;-85
2022/08/22 12:13:04;;;;;;;3.45;2.75;;;28.20;99.90;;;;;;5050330;28;20167;-85
2022/08/22 12:15:55;;;;;;;2.55;2.05;;;28.20;99.90;;;;;;5055125;28;20184;-86
2022/08/22 12:18:43;;;;;;;2.72;2.10;;;28.20;99.90;;;;;;5055779;28;20161;-84
2022/08/22 12:21:12;;;;;;;5.78;2.40;;;28.40;99.90;;;;;;5051055;28;20325;-85
2022/08/22 12:23:46;;;;;;;2.85;2.08;;;28.90;99.90;;;;;;5054700;28;20215;-86
2022/08/22 12:26:26;;;;;;;3.80;2.42;;;29.00;99.90;;;;;;5054671;28;20253;-86
2022/08/22 12:29:10;;;;;;;5.32;2.35;;;29.40;99.90;;;;;;5056104;28;20692;-84
2022/08/22 12:32:32;;;;;;;3.38;2.45;;;29.20;99.90;;;;;;5055583;28;20199;-84
2022/08/22 12:35:28;;;;;;;3.88;2.10;;;29.20;99.90;;;;;;5030903;28;20749;-84
2022/08/22 12:38:32;;;;;;;3.40;2.45;;;28.80;99.90;;;;;;5045314;28;20671;-84
2022/08/22 12:41:06;;;;;;;2.85;2.38;;;28.40;99.90;;;;;;5053035;28;20172;-85
2022/08/22 12:44:06;;;;;;;3.85;2.60;;;28.10;99.90;;;;;;5062179;28;20666;-85
2022/08/22 12:46:54;;;;;;;4.15;2.70;;;28.10;99.90;;;;;;5054486;28;20191;-84
2022/08/22 12:49:57;;;;;;;2.65;2.10;;;28.40;99.90;;;;;;5073322;28;20648;-86
2022/08/22 12:53:00;;;;;;;6.25;2.88;;;28.80;99.90;;;;;;5073822;28;20183;-84
2022/08/22 12:55:43;;;;;;;4.03;2.58;;;28.90;99.90;;;;;;5074238;28;20620;-86
2022/08/22 12:58:24;;;;;;;4.63;2.45;;;29.00;99.90;;;;;;5074646;28;20175;-84
2022/08/22 13:00:51;;;;;;;3.47;2.63;;;29.10;99.90;;;;;;5074057;28;20546;-86
2022/08/22 13:03:26;;;;;;;3.88;2.45;;;29.20;99.90;;;;;;5073584;28;20175;-85
2022/08/22 13:05:53;;;;;;;4.28;3.13;;;29.30;99.90;;;;;;5069026;28;20223;-85
2022/08/22 13:08:32;;;;;;;3.70;2.53;;;29.40;99.90;;;;;;5057151;28;20258;-87
2022/08/22 13:11:12;;;;;;;5.20;3.25;;;29.40;99.90;;;;;;5075265;28;20175;-88
2022/08/22 13:13:48;;;;;;;3.08;2.38;;;29.50;99.90;;;;;;5069425;28;20171;-86
2022/08/22 13:16:18;;;;;;;3.92;3.20;;;29.60;99.90;;;;;;5071671;28;20624;-83
2022/08/22 13:19:15;;;;;;;3.22;2.30;;;29.60;99.90;;;;;;5074576;28;20187;-87
2022/08/22 13:21:53;;;;;;;6.15;3.03;;;29.60;99.90;;;;;;5074154;28;20167;-85
2022/08/22 13:24:36;;;;;;;3.05;2.30;;;29.20;99.90;;;;;;5075258;28;20163;-86
2022/08/22 13:27:06;;;;;;;7.65;2.22;;;28.80;99.90;;;;;;5074285;28;20229;-85
2022/08/22 13:29:42;;;;;;;4.90;2.05;;;29.30;99.90;;;;;;5074346;28;20188;-86
2022/08/22 13:32:17;;;;;;;3.75;2.17;;;29.00;99.90;;;;;;5072633;28;20174;-84
2022/08/22 13:34:55;;;;;;;4.82;2.65;;;29.30;99.90;;;;;;5056688;28;20243;-87
2022/08/22 13:37:27;;;;;;;2.65;1.90;;;29.40;99.90;;;;;;5074357;28;20177;-85
2022/08/22 13:40:00;;;;;;;2.60;2.30;;;29.60;99.90;;;;;;5075127;28;20174;-86
2022/08/22 13:42:28;;;;;;;2.92;2.30;;;29.70;99.90;;;;;;5074993;28;20231;-86
2022/08/22 13:44:57;;;;;;;5.63;2.63;;;29.50;99.90;;;;;;5057483;28;20187;-87
2022/08/22 13:47:25;;;;;;;3.60;2.60;;;29.50;99.90;;;;;;5076293;28;20171;-85
2022/08/22 13:50:13;;;;;;;7.53;2.92;;;29.10;99.90;;;;;;5075111;28;20210;-85
2022/08/22 13:52:47;;;;;;;3.40;2.50;;;28.80;99.90;;;;;;5075541;28;20215;-85
2022/08/22 13:55:54;;;;;;;3.63;1.85;;;28.50;99.90;;;;;;5078230;28;20193;-86
2022/08/22 13:58:20;;;;;;;3.60;2.50;;;;;;;;;;4998320;28;20181;-87
2022/08/22 14:01:04;;;;;;;25.65;3.35;;;28.10;99.90;;;;;;5011507;28;20196;-85
2022/08/22 14:03:44;;;;;;;4.85;2.88;;;28.10;99.90;;;;;;5049602;28;20258;-84
2022/08/22 14:06:21;;;;;;;3.22;2.15;;;28.00;99.90;;;;;;5075320;28;20152;-83
2022/08/22 14:08:49;;;;;;;6.15;2.80;;;28.00;99.90;;;;;;5056075;28;20679;-87
2022/08/22 14:11:44;;;;;;;3.92;2.80;;;28.00;99.90;;;;;;5073836;28;20186;-86